createdAt,value
2024-03-16T00:00:53.128Z,1.168
2024-03-16T00:01:53.148Z,1.185
2024-03-16T00:02:53.124Z,1.135
2024-03-16T00:03:53.184Z,1.068
2024-03-16T00:04:53.136Z,1.094
2024-03-16T00:05:53.154Z,1.051
2024-03-16T00:06:53.166Z,0.9993
2024-03-16T00:07:53.149Z,1.027
2024-03-16T00:08:53.178Z,1.043
2024-03-16T00:09:53.211Z,1.077
2024-03-16T00:10:53.233Z,1.094
2024-03-16T00:11:53.185Z,1.079
2024-03-16T00:12:53.220Z,1.062
2024-03-16T00:13:53.194Z,1.062
2024-03-16T00:14:53.209Z,1.079
2024-03-16T00:15:53.221Z,1.112
2024-03-16T00:16:53.221Z,1.060
2024-03-16T00:17:53.263Z,1.077
2024-03-16T00:18:53.249Z,1.060
2024-03-16T00:19:53.235Z,0.9489
2024-03-16T00:20:53.246Z,0.9489
2024-03-16T00:21:53.273Z,0.8515
2024-03-16T00:22:53.262Z,0.8515
2024-03-16T00:23:53.265Z,0.8683
2024-03-16T00:24:53.299Z,0.8851
2024-03-16T00:25:53.286Z,0.8851
2024-03-16T00:26:53.297Z,0.9045
2024-03-16T00:27:53.413Z,0.9045
2024-03-16T00:28:53.306Z,0.8877
2024-03-16T00:29:53.311Z,0.8877
2024-03-16T00:30:53.354Z,0.8614
2024-03-16T00:31:53.358Z,0.7317
2024-03-16T00:32:53.380Z,0.6982
2024-03-16T00:33:53.388Z,0.7317
2024-03-16T00:34:53.343Z,0.7485
2024-03-16T00:35:53.353Z,0.7317
2024-03-16T00:36:53.472Z,0.7170
2024-03-16T00:37:53.381Z,0.7002
2024-03-16T00:38:53.387Z,0.6834
2024-03-16T00:39:53.436Z,0.6666
2024-03-16T00:40:53.413Z,0.6497
2024-03-16T00:41:53.415Z,0.6382
2024-03-16T00:42:53.452Z,0.6718
2024-03-16T00:43:53.421Z,0.6623
2024-03-16T00:44:53.440Z,0.6718
2024-03-16T00:45:53.474Z,0.6814
2024-03-16T00:46:53.438Z,0.6045
2024-03-16T00:47:53.489Z,0.5708
2024-03-16T00:48:53.533Z,0.5708
2024-03-16T00:49:53.558Z,0.5708
2024-03-16T00:50:53.488Z,0.5877
2024-03-16T00:51:53.587Z,0.5575
2024-03-16T00:52:53.550Z,0.5575
2024-03-16T00:53:53.563Z,0.5575
2024-03-16T00:54:53.634Z,0.5407
2024-03-16T00:55:53.564Z,0.5575
2024-03-16T00:56:53.517Z,0.5105
2024-03-16T00:57:53.617Z,0.4937
2024-03-16T00:58:53.623Z,0.4863
2024-03-16T00:59:53.662Z,0.4599
2024-03-16T01:00:53.697Z,0.4694
2024-03-16T01:01:53.694Z,0.3839
2024-03-16T01:02:53.653Z,0.3839
2024-03-16T01:03:53.807Z,0.3228
2024-03-16T01:04:53.634Z,0.3228
2024-03-16T01:05:53.733Z,0.3397
2024-03-16T01:06:53.721Z,0.4149
2024-03-16T01:07:53.638Z,0.4149
2024-03-16T01:08:53.651Z,0.4149
2024-03-16T01:09:53.773Z,0.3980
2024-03-16T01:10:53.681Z,0.3980
2024-03-16T01:11:53.658Z,0.3839
2024-03-16T01:12:53.758Z,0.4008
2024-03-16T01:13:53.695Z,0.4345
2024-03-16T01:14:53.700Z,0.4513
2024-03-16T01:15:53.772Z,0.4682
2024-03-16T01:16:53.746Z,0.5142
2024-03-16T01:17:53.808Z,0.5478
2024-03-16T01:18:53.784Z,0.5814
2024-03-16T01:19:53.804Z,0.5814
2024-03-16T01:20:53.746Z,0.5646
2024-03-16T01:21:53.794Z,0.5807
2024-03-16T01:22:53.802Z,0.5807
2024-03-16T01:23:53.791Z,0.5807
2024-03-16T01:24:53.828Z,0.6143
2024-03-16T01:25:53.785Z,0.6574
2024-03-16T01:26:53.783Z,0.6958
2024-03-16T01:27:53.827Z,0.7388
2024-03-16T01:28:53.811Z,0.7555
2024-03-16T01:29:53.833Z,0.7125
2024-03-16T01:30:53.888Z,0.7125
2024-03-16T01:31:53.824Z,0.7997
2024-03-16T01:32:53.862Z,0.8164
2024-03-16T01:33:53.842Z,0.8331
2024-03-16T01:34:53.840Z,0.8331
2024-03-16T01:35:53.848Z,0.8497
2024-03-16T01:36:53.961Z,0.8359
2024-03-16T01:37:53.870Z,0.8525
2024-03-16T01:38:56.509Z,0.8525
2024-03-16T01:39:53.926Z,0.8856
2024-03-16T01:40:53.923Z,0.8954
2024-03-16T01:41:53.930Z,0.9922
2024-03-16T01:42:53.952Z,1.077
2024-03-16T01:43:53.935Z,1.117
2024-03-16T01:44:53.938Z,1.167
2024-03-16T01:45:54.110Z,1.216
2024-03-16T01:46:53.948Z,1.300
2024-03-16T01:47:54.049Z,1.433
2024-03-16T01:48:54.020Z,1.659
2024-03-16T01:49:53.969Z,1.765
2024-03-16T01:50:53.983Z,1.892
2024-03-16T01:51:54.041Z,2.027
2024-03-16T01:52:54.006Z,2.158
2024-03-16T01:53:54.013Z,2.279
2024-03-16T01:54:54.026Z,2.341
2024-03-16T01:55:54.041Z,2.532
2024-03-16T01:56:54.040Z,2.551
2024-03-16T01:57:54.063Z,2.593
2024-03-16T01:58:54.046Z,2.609
2024-03-16T01:59:54.047Z,2.639
2024-03-16T02:00:54.115Z,2.766
2024-03-16T02:01:54.112Z,2.766
2024-03-16T02:02:54.082Z,2.781
2024-03-16T02:03:54.160Z,2.876
2024-03-16T02:04:54.128Z,2.860
2024-03-16T02:05:54.113Z,2.878
2024-03-16T02:06:54.232Z,2.878
2024-03-16T02:07:54.185Z,2.862
2024-03-16T02:08:54.132Z,2.968
2024-03-16T02:09:54.252Z,3.009
2024-03-16T02:10:54.193Z,3.036
2024-03-16T02:11:54.150Z,3.036
2024-03-16T02:12:54.304Z,3.074
2024-03-16T02:13:54.162Z,3.063
2024-03-16T02:14:54.176Z,3.089
2024-03-16T02:15:54.219Z,3.073
2024-03-16T02:16:54.197Z,3.058
2024-03-16T02:17:54.300Z,3.111
2024-03-16T02:18:54.243Z,3.173
2024-03-16T02:19:54.239Z,3.158
2024-03-16T02:20:54.240Z,3.142
2024-03-16T02:21:54.339Z,3.142
2024-03-16T02:22:54.256Z,3.142
2024-03-16T02:23:54.260Z,3.231
2024-03-16T02:24:54.296Z,3.268
2024-03-16T02:25:54.280Z,3.252
2024-03-16T02:26:54.269Z,3.237
2024-03-16T02:27:54.318Z,3.221
2024-03-16T02:28:54.315Z,3.225
2024-03-16T02:29:54.312Z,3.225
2024-03-16T02:30:54.388Z,3.252
2024-03-16T02:31:56.178Z,3.236
2024-03-16T02:32:54.409Z,3.221
2024-03-16T02:33:54.374Z,3.295
2024-03-16T02:34:54.363Z,3.295
2024-03-16T02:35:54.369Z,3.280
2024-03-16T02:36:54.454Z,3.264
2024-03-16T02:37:54.385Z,3.264
2024-03-16T02:38:54.391Z,3.225
2024-03-16T02:39:54.426Z,3.199
2024-03-16T02:40:54.416Z,3.168
2024-03-16T02:41:54.412Z,3.193
2024-03-16T02:42:54.514Z,3.221
2024-03-16T02:43:54.442Z,3.275
2024-03-16T02:44:54.449Z,3.244
2024-03-16T02:45:54.512Z,3.260
2024-03-16T02:46:54.484Z,3.233
2024-03-16T02:47:54.498Z,3.260
2024-03-16T02:48:54.519Z,3.272
2024-03-16T02:49:54.496Z,3.272
2024-03-16T02:50:54.493Z,3.324
2024-03-16T02:51:54.545Z,3.335
2024-03-16T02:52:54.501Z,3.351
2024-03-16T02:53:54.516Z,3.351
2024-03-16T02:54:54.578Z,3.335
2024-03-16T02:55:54.546Z,3.335
2024-03-16T02:56:54.575Z,3.335
2024-03-16T02:57:54.587Z,3.335
2024-03-16T02:58:54.568Z,3.304
2024-03-16T02:59:54.608Z,3.304
2024-03-16T03:00:54.661Z,3.288
2024-03-16T03:01:54.634Z,3.299
2024-03-16T03:02:54.605Z,3.299
2024-03-16T03:03:54.643Z,3.283
2024-03-16T03:04:54.610Z,3.321
2024-03-16T03:05:54.610Z,3.321
2024-03-16T03:06:54.678Z,3.305
2024-03-16T03:07:54.639Z,3.405
2024-03-16T03:08:54.656Z,3.421
2024-03-16T03:09:54.671Z,3.452
2024-03-16T03:10:54.740Z,3.468
2024-03-16T03:11:54.677Z,3.468
2024-03-16T03:12:54.706Z,3.449
2024-03-16T03:13:54.684Z,3.449
2024-03-16T03:14:54.690Z,3.449
2024-03-16T03:15:54.725Z,3.407
2024-03-16T03:16:54.710Z,3.407
2024-03-16T03:17:54.738Z,3.473
2024-03-16T03:18:54.758Z,3.483
2024-03-16T03:19:54.735Z,3.510
2024-03-16T03:20:54.746Z,3.510
2024-03-16T03:21:54.807Z,3.510
2024-03-16T03:22:54.761Z,3.523
2024-03-16T03:23:54.763Z,3.523
2024-03-16T03:24:54.798Z,3.508
2024-03-16T03:25:54.789Z,3.523
2024-03-16T03:26:54.792Z,3.523
2024-03-16T03:27:54.940Z,3.483
2024-03-16T03:28:54.806Z,3.483
2024-03-16T03:29:54.812Z,3.483
2024-03-16T03:30:54.946Z,3.483
2024-03-16T03:31:54.825Z,3.515
2024-03-16T03:32:54.916Z,3.548
2024-03-16T03:33:54.872Z,3.548
2024-03-16T03:34:54.854Z,3.564
2024-03-16T03:35:54.871Z,3.564
2024-03-16T03:36:54.930Z,3.564
2024-03-16T03:37:54.886Z,3.615
2024-03-16T03:38:54.883Z,3.615
2024-03-16T03:39:54.960Z,3.646
2024-03-16T03:40:54.903Z,3.646
2024-03-16T03:41:54.906Z,3.662
2024-03-16T03:42:54.917Z,3.690
2024-03-16T03:43:54.908Z,3.675
2024-03-16T03:44:54.918Z,3.675
2024-03-16T03:45:55.156Z,3.690
2024-03-16T03:46:54.943Z,3.690
2024-03-16T03:47:54.974Z,3.690
2024-03-16T03:48:54.977Z,3.675
2024-03-16T03:49:54.965Z,3.659
2024-03-16T03:50:54.998Z,3.675
2024-03-16T03:51:55.617Z,3.690
2024-03-16T03:52:54.988Z,3.648
2024-03-16T03:53:55.003Z,3.648
2024-03-16T03:54:55.055Z,3.648
2024-03-16T03:55:54.993Z,3.648
2024-03-16T03:56:55.028Z,3.648
2024-03-16T03:57:56.152Z,3.675
2024-03-16T03:58:55.045Z,3.706
2024-03-16T03:59:55.040Z,3.722
2024-03-16T04:00:55.238Z,3.737
2024-03-16T04:01:55.086Z,3.769
2024-03-16T04:02:55.072Z,3.731
2024-03-16T04:03:55.092Z,3.731
2024-03-16T04:04:55.090Z,3.731
2024-03-16T04:05:55.096Z,3.715
2024-03-16T04:06:55.154Z,3.731
2024-03-16T04:07:55.113Z,3.726
2024-03-16T04:08:55.106Z,3.710
2024-03-16T04:09:58.260Z,3.710
2024-03-16T04:10:55.146Z,3.726
2024-03-16T04:11:55.137Z,3.741
2024-03-16T04:12:55.219Z,3.741
2024-03-16T04:13:55.181Z,3.741
2024-03-16T04:14:55.174Z,3.781
2024-03-16T04:15:55.226Z,3.796
2024-03-16T04:16:55.217Z,3.796
2024-03-16T04:17:55.201Z,3.840
2024-03-16T04:18:55.226Z,3.840
2024-03-16T04:19:55.198Z,3.856
2024-03-16T04:20:55.220Z,3.856
2024-03-16T04:21:55.228Z,3.871
2024-03-16T04:22:55.230Z,3.919
2024-03-16T04:23:55.270Z,3.919
2024-03-16T04:24:55.290Z,3.919
2024-03-16T04:25:55.271Z,3.919
2024-03-16T04:26:55.286Z,3.903
2024-03-16T04:27:55.332Z,3.875
2024-03-16T04:28:55.304Z,3.859
2024-03-16T04:29:55.304Z,3.859
2024-03-16T04:30:55.320Z,3.859
2024-03-16T04:31:55.322Z,3.875
2024-03-16T04:32:55.351Z,3.846
2024-03-16T04:33:55.348Z,3.846
2024-03-16T04:34:55.336Z,3.831
2024-03-16T04:35:55.348Z,3.815
2024-03-16T04:36:55.409Z,3.815
2024-03-16T04:37:55.367Z,3.897
2024-03-16T04:38:55.377Z,3.897
2024-03-16T04:39:55.395Z,3.897
2024-03-16T04:40:55.396Z,3.913
2024-03-16T04:41:55.396Z,3.897
2024-03-16T04:42:55.520Z,3.865
2024-03-16T04:43:55.410Z,3.865
2024-03-16T04:44:55.414Z,3.865
2024-03-16T04:45:55.457Z,3.881
2024-03-16T04:46:55.417Z,3.881
2024-03-16T04:47:55.461Z,3.979
2024-03-16T04:48:55.480Z,4.026
2024-03-16T04:49:55.452Z,4.026
2024-03-16T04:50:55.469Z,4.055
2024-03-16T04:51:55.533Z,4.039
2024-03-16T04:52:55.474Z,4.020
2024-03-16T04:53:55.491Z,4.020
2024-03-16T04:54:55.559Z,4.020
2024-03-16T04:55:55.503Z,4.020
2024-03-16T04:56:55.519Z,4.020
2024-03-16T04:57:55.600Z,4.064
2024-03-16T04:58:55.528Z,4.064
2024-03-16T04:59:55.535Z,4.080
2024-03-16T05:00:55.615Z,4.080
2024-03-16T05:01:55.620Z,4.095
2024-03-16T05:02:55.573Z,4.149
2024-03-16T05:03:55.617Z,4.164
2024-03-16T05:04:56.908Z,4.180
2024-03-16T05:05:55.601Z,4.180
2024-03-16T05:06:55.639Z,4.180
2024-03-16T05:07:55.630Z,4.180
2024-03-16T05:08:55.646Z,4.210
2024-03-16T05:09:55.704Z,4.226
2024-03-16T05:10:55.712Z,4.226
2024-03-16T05:11:55.642Z,4.226
2024-03-16T05:12:55.704Z,4.188
2024-03-16T05:13:55.669Z,4.188
2024-03-16T05:14:55.681Z,4.188
2024-03-16T05:15:55.765Z,4.188
2024-03-16T05:16:55.733Z,4.188
2024-03-16T05:17:55.766Z,4.096
2024-03-16T05:18:55.747Z,4.112
2024-03-16T05:19:55.725Z,4.112
2024-03-16T05:20:55.726Z,4.127
2024-03-16T05:21:55.762Z,4.142
2024-03-16T05:22:55.740Z,4.167
2024-03-16T05:23:55.741Z,4.198
2024-03-16T05:24:55.788Z,4.213
2024-03-16T05:25:55.756Z,4.137
2024-03-16T05:26:55.760Z,4.152
2024-03-16T05:27:55.818Z,4.074
2024-03-16T05:28:55.779Z,4.089
2024-03-16T05:29:55.792Z,4.120
2024-03-16T05:30:55.851Z,4.120
2024-03-16T05:31:55.808Z,4.135
2024-03-16T05:32:55.870Z,4.050
2024-03-16T05:33:55.852Z,4.035
2024-03-16T05:34:55.824Z,4.035
2024-03-16T05:35:55.824Z,3.982
2024-03-16T05:36:55.863Z,3.982
2024-03-16T05:37:55.836Z,3.988
2024-03-16T05:38:55.857Z,3.988
2024-03-16T05:39:55.880Z,4.003
2024-03-16T05:40:55.873Z,4.034
2024-03-16T05:41:55.898Z,4.018
2024-03-16T05:42:55.992Z,4.019
2024-03-16T05:43:55.900Z,4.034
2024-03-16T05:44:55.905Z,4.050
2024-03-16T05:45:55.944Z,4.023
2024-03-16T05:46:55.927Z,4.023
2024-03-16T05:47:55.998Z,4.032
2024-03-16T05:48:55.994Z,4.047
2024-03-16T05:49:55.959Z,4.077
2024-03-16T05:50:55.954Z,4.077
2024-03-16T05:51:56.066Z,4.062
2024-03-16T05:52:55.985Z,3.990
2024-03-16T05:53:55.987Z,3.990
2024-03-16T05:54:56.144Z,3.990
2024-03-16T05:55:55.999Z,4.005
2024-03-16T05:56:56.011Z,4.005
2024-03-16T05:57:56.087Z,4.022
2024-03-16T05:58:56.042Z,3.962
2024-03-16T05:59:56.039Z,3.901
2024-03-16T06:00:56.139Z,3.840
2024-03-16T06:01:56.077Z,3.779
2024-03-16T06:02:56.062Z,3.737
2024-03-16T06:03:56.074Z,3.706
2024-03-16T06:04:56.072Z,3.691
2024-03-16T06:05:56.087Z,3.675
2024-03-16T06:06:56.115Z,3.691
2024-03-16T06:07:56.099Z,3.708
2024-03-16T06:08:56.115Z,3.693
2024-03-16T06:09:56.173Z,3.708
2024-03-16T06:10:56.176Z,3.708
2024-03-16T06:11:56.152Z,3.739
2024-03-16T06:12:56.194Z,3.798
2024-03-16T06:13:56.154Z,3.798
2024-03-16T06:14:56.140Z,3.798
2024-03-16T06:15:56.176Z,3.882
2024-03-16T06:16:56.162Z,3.882
2024-03-16T06:17:56.214Z,3.867
2024-03-16T06:18:56.256Z,3.851
2024-03-16T06:19:56.195Z,3.836
2024-03-16T06:20:56.206Z,3.883
2024-03-16T06:21:56.236Z,3.883
2024-03-16T06:22:56.214Z,3.883
2024-03-16T06:23:56.223Z,3.973
2024-03-16T06:24:56.248Z,3.983
2024-03-16T06:25:56.251Z,3.968
2024-03-16T06:26:56.226Z,4.101
2024-03-16T06:27:56.257Z,4.085
2024-03-16T06:28:56.236Z,4.082
2024-03-16T06:29:56.280Z,4.067
2024-03-16T06:30:56.275Z,4.099
2024-03-16T06:31:56.274Z,4.159
2024-03-16T06:32:56.296Z,4.172
2024-03-16T06:33:56.318Z,4.156
2024-03-16T06:34:56.291Z,4.213
2024-03-16T06:35:56.305Z,4.232
2024-03-16T06:36:56.368Z,4.279
2024-03-16T06:37:56.308Z,4.235
2024-03-16T06:38:56.316Z,4.232
2024-03-16T06:39:56.371Z,4.280
2024-03-16T06:40:56.334Z,4.311
2024-03-16T06:41:56.329Z,4.314
2024-03-16T06:42:56.413Z,4.330
2024-03-16T06:43:56.345Z,4.311
2024-03-16T06:44:56.347Z,4.327
2024-03-16T06:45:56.376Z,4.343
2024-03-16T06:46:56.358Z,4.343
2024-03-16T06:47:56.368Z,4.343
2024-03-16T06:48:56.414Z,4.314
2024-03-16T06:49:56.386Z,4.299
2024-03-16T06:50:56.397Z,4.406
2024-03-16T06:51:56.463Z,4.466
2024-03-16T06:52:56.403Z,4.450
2024-03-16T06:53:56.484Z,4.434
2024-03-16T06:54:56.519Z,4.418
2024-03-16T06:55:56.458Z,4.440
2024-03-16T06:56:56.486Z,4.424
2024-03-16T06:57:56.545Z,4.427
2024-03-16T06:58:56.524Z,4.379
2024-03-16T06:59:56.479Z,4.363
2024-03-16T07:00:56.602Z,4.363
2024-03-16T07:01:56.538Z,4.391
2024-03-16T07:02:56.555Z,4.384
2024-03-16T07:03:56.622Z,4.384
2024-03-16T07:04:56.500Z,4.355
2024-03-16T07:05:56.498Z,4.438
2024-03-16T07:06:56.596Z,4.454
2024-03-16T07:07:56.554Z,4.438
2024-03-16T07:08:56.536Z,4.389
2024-03-16T07:09:56.635Z,4.353
2024-03-16T07:10:56.613Z,4.227
2024-03-16T07:11:56.554Z,4.045
2024-03-16T07:12:56.625Z,3.911
2024-03-16T07:13:56.580Z,3.707
2024-03-16T07:14:56.592Z,3.631
2024-03-16T07:15:56.654Z,3.405
2024-03-16T07:16:56.627Z,3.158
2024-03-16T07:17:56.697Z,2.961
2024-03-16T07:18:56.752Z,2.798
2024-03-16T07:19:56.681Z,2.735
2024-03-16T07:20:56.638Z,2.569
2024-03-16T07:21:56.733Z,2.514
2024-03-16T07:22:56.672Z,2.514
2024-03-16T07:23:56.649Z,2.477
2024-03-16T07:24:56.743Z,2.542
2024-03-16T07:25:56.678Z,2.542
2024-03-16T07:26:56.691Z,2.579
2024-03-16T07:27:56.748Z,2.690
2024-03-16T07:28:56.705Z,2.762
2024-03-16T07:29:56.721Z,2.909
2024-03-16T07:30:56.809Z,2.872
2024-03-16T07:31:56.728Z,2.746
2024-03-16T07:32:56.763Z,2.523
2024-03-16T07:33:59.236Z,2.331
2024-03-16T07:34:56.747Z,2.167
2024-03-16T07:35:56.757Z,2.011
2024-03-16T07:36:56.834Z,1.822
2024-03-16T07:37:56.796Z,1.830
2024-03-16T07:38:56.793Z,1.870
2024-03-16T07:39:56.914Z,1.810
2024-03-16T07:40:56.819Z,1.810
2024-03-16T07:41:56.819Z,1.850
2024-03-16T07:42:56.889Z,1.949
2024-03-16T07:43:56.849Z,1.976
2024-03-16T07:44:56.849Z,1.594
2024-03-16T07:45:56.889Z,1.318
2024-03-16T07:46:56.872Z,0.7329
2024-03-16T07:47:56.918Z,0.4230
2024-03-16T07:48:56.900Z,0.4007
2024-03-16T07:49:56.875Z,0.6242
2024-03-16T07:50:56.903Z,0.7345
2024-03-16T07:51:56.928Z,0.9407
2024-03-16T07:52:56.935Z,1.050
2024-03-16T07:53:56.943Z,1.180
2024-03-16T07:54:56.990Z,1.238
2024-03-16T07:55:56.952Z,1.357
2024-03-16T07:56:56.972Z,1.569
2024-03-16T07:57:56.993Z,1.799
2024-03-16T07:58:56.976Z,1.923
2024-03-16T07:59:56.979Z,1.674
2024-03-16T08:00:57.088Z,1.522
2024-03-16T08:01:57.047Z,1.090
2024-03-16T08:02:56.997Z,0.8139
2024-03-16T08:03:57.053Z,1.038
2024-03-16T08:04:57.006Z,0.9488
2024-03-16T08:05:57.017Z,1.203
2024-03-16T08:06:57.047Z,1.092
2024-03-16T08:07:57.045Z,1.344
2024-03-16T08:08:57.051Z,1.432
2024-03-16T08:09:57.116Z,1.512
2024-03-16T08:10:57.073Z,1.802
2024-03-16T08:11:57.093Z,1.991
2024-03-16T08:12:57.116Z,2.072
2024-03-16T08:13:57.098Z,2.162
2024-03-16T08:14:57.110Z,2.265
2024-03-16T08:15:57.158Z,2.448
2024-03-16T08:16:57.122Z,2.509
2024-03-16T08:17:57.136Z,2.489
2024-03-16T08:18:57.173Z,2.611
2024-03-16T08:19:57.162Z,2.777
2024-03-16T08:20:57.150Z,2.777
2024-03-16T08:21:57.221Z,2.785
2024-03-16T08:22:57.211Z,2.825
2024-03-16T08:23:57.184Z,2.863
2024-03-16T08:24:57.305Z,3.021
2024-03-16T08:25:57.232Z,2.982
2024-03-16T08:26:57.218Z,2.974
2024-03-16T08:27:57.243Z,3.088
2024-03-16T08:28:57.240Z,3.093
2024-03-16T08:29:57.243Z,3.191
2024-03-16T08:30:57.255Z,3.263
2024-03-16T08:31:57.249Z,2.945
2024-03-16T08:32:57.289Z,2.525
2024-03-16T08:33:57.281Z,1.841
2024-03-16T08:34:57.270Z,1.364
2024-03-16T08:35:57.272Z,0.9744
2024-03-16T08:36:57.366Z,0.8490
2024-03-16T08:37:57.308Z,0.6593
2024-03-16T08:38:57.300Z,0.6354
2024-03-16T08:39:57.397Z,0.6836
2024-03-16T08:40:57.342Z,0.4988
2024-03-16T08:41:57.359Z,0.4010
2024-03-16T08:42:57.358Z,0.3968
2024-03-16T08:43:57.341Z,0.4214
2024-03-16T08:44:57.336Z,0.5682
2024-03-16T08:45:57.367Z,0.6042
2024-03-16T08:46:57.372Z,0.8217
2024-03-16T08:47:57.450Z,0.7491
2024-03-16T08:48:57.420Z,0.9180
2024-03-16T08:49:57.423Z,1.088
2024-03-16T08:50:57.434Z,1.352
2024-03-16T08:51:57.444Z,1.445
2024-03-16T08:52:57.420Z,1.584
2024-03-16T08:53:57.432Z,1.722
2024-03-16T08:54:57.467Z,1.836
2024-03-16T08:55:57.444Z,1.904
2024-03-16T08:56:57.461Z,2.083
2024-03-16T08:57:57.478Z,2.128
2024-03-16T08:58:57.465Z,2.151
2024-03-16T08:59:57.458Z,2.268
2024-03-16T09:00:57.570Z,2.443
2024-03-16T09:01:57.563Z,2.702
2024-03-16T09:02:57.492Z,2.638
2024-03-16T09:03:57.527Z,2.573
2024-03-16T09:04:57.506Z,2.575
2024-03-16T09:05:57.526Z,2.748
2024-03-16T09:06:57.558Z,2.836
2024-03-16T09:07:57.539Z,2.927
2024-03-16T09:08:57.551Z,3.097
2024-03-16T09:09:57.604Z,3.019
2024-03-16T09:10:57.607Z,2.848
2024-03-16T09:11:57.567Z,2.746
2024-03-16T09:12:57.591Z,2.526
2024-03-16T09:13:57.572Z,2.437
2024-03-16T09:14:57.593Z,2.504
2024-03-16T09:15:57.679Z,2.570
2024-03-16T09:16:57.618Z,2.534
2024-03-16T09:17:57.641Z,2.753
2024-03-16T09:18:57.666Z,2.796
2024-03-16T09:19:59.731Z,3.052
2024-03-16T09:20:57.675Z,3.221
2024-03-16T09:21:57.694Z,3.246
2024-03-16T09:22:57.669Z,3.308
2024-03-16T09:23:57.672Z,3.473
2024-03-16T09:24:57.732Z,3.657
2024-03-16T09:25:57.673Z,3.657
2024-03-16T09:26:57.676Z,3.727
2024-03-16T09:27:57.747Z,3.747
2024-03-16T09:28:57.694Z,3.666
2024-03-16T09:29:57.712Z,3.625
2024-03-16T09:30:57.760Z,3.707
2024-03-16T09:31:57.754Z,3.799
2024-03-16T09:32:57.798Z,3.832
2024-03-16T09:33:57.790Z,3.832
2024-03-16T09:34:57.768Z,3.730
2024-03-16T09:35:57.774Z,3.751
2024-03-16T09:36:57.800Z,3.716
2024-03-16T09:37:57.795Z,3.837
2024-03-16T09:38:57.794Z,3.917
2024-03-16T09:39:57.842Z,3.791
2024-03-16T09:40:57.812Z,3.711
2024-03-16T09:41:57.814Z,3.570
2024-03-16T09:42:57.846Z,3.345
2024-03-16T09:43:57.841Z,3.324
2024-03-16T09:44:57.860Z,3.374
2024-03-16T09:45:57.884Z,2.989
2024-03-16T09:46:57.876Z,2.701
2024-03-16T09:47:57.944Z,2.634
2024-03-16T09:48:57.919Z,2.208
2024-03-16T09:49:57.907Z,2.140
2024-03-16T09:50:57.913Z,2.276
2024-03-16T09:51:57.984Z,2.026
2024-03-16T09:52:57.933Z,2.016
2024-03-16T09:53:57.935Z,2.039
2024-03-16T09:54:57.970Z,2.085
2024-03-16T09:55:57.947Z,2.226
2024-03-16T09:56:57.951Z,2.383
2024-03-16T09:57:57.992Z,2.561
2024-03-16T09:59:01.542Z,2.655
2024-03-16T09:59:57.997Z,2.747
2024-03-16T10:00:58.012Z,2.897
2024-03-16T10:01:58.008Z,2.854
2024-03-16T10:02:58.018Z,3.004
2024-03-16T10:03:58.065Z,2.970
2024-03-16T10:04:58.031Z,3.055
2024-03-16T10:05:58.047Z,3.181
2024-03-16T10:06:58.088Z,3.264
2024-03-16T10:07:58.044Z,3.347
2024-03-16T10:08:58.053Z,3.365
2024-03-16T10:09:58.093Z,3.240
2024-03-16T10:10:58.118Z,3.296
2024-03-16T10:11:58.080Z,3.253
2024-03-16T10:12:58.104Z,3.162
2024-03-16T10:13:58.102Z,3.076
2024-03-16T10:14:58.112Z,3.140
2024-03-16T10:15:58.166Z,3.238
2024-03-16T10:16:58.127Z,3.296
2024-03-16T10:17:58.137Z,3.361
2024-03-16T10:18:58.167Z,3.339
2024-03-16T10:19:58.146Z,3.370
2024-03-16T10:20:58.154Z,3.455
2024-03-16T10:21:58.181Z,3.498
2024-03-16T10:22:58.164Z,3.583
2024-03-16T10:23:58.192Z,3.668
2024-03-16T10:24:58.227Z,3.764
2024-03-16T10:25:58.192Z,3.806
2024-03-16T10:26:58.194Z,3.737
2024-03-16T10:27:58.227Z,3.696
2024-03-16T10:28:58.220Z,3.779
2024-03-16T10:29:58.222Z,3.779
2024-03-16T10:30:58.336Z,3.737
2024-03-16T10:31:58.240Z,3.820
2024-03-16T10:32:58.244Z,3.820
2024-03-16T10:33:58.327Z,3.800
2024-03-16T10:34:58.257Z,3.862
2024-03-16T10:35:58.257Z,3.940
2024-03-16T10:36:58.338Z,3.961
2024-03-16T10:37:58.285Z,3.940
2024-03-16T10:38:58.299Z,4.020
2024-03-16T10:39:58.376Z,3.972
2024-03-16T10:40:58.323Z,3.951
2024-03-16T10:41:58.344Z,3.993
2024-03-16T10:42:58.343Z,4.013
2024-03-16T10:43:58.368Z,3.993
2024-03-16T10:44:58.365Z,3.922
2024-03-16T10:45:58.372Z,4.004
2024-03-16T10:46:58.366Z,4.066
2024-03-16T10:47:58.369Z,4.066
2024-03-16T10:48:58.373Z,4.158
2024-03-16T10:49:58.386Z,4.234
2024-03-16T10:50:58.399Z,4.193
2024-03-16T10:51:58.409Z,4.103
2024-03-16T10:52:58.440Z,4.100
2024-03-16T10:53:58.424Z,4.098
2024-03-16T10:54:58.423Z,4.140
2024-03-16T10:55:58.440Z,4.059
2024-03-16T10:56:58.454Z,4.103
2024-03-16T10:57:58.463Z,4.205
2024-03-16T10:58:58.530Z,4.294
2024-03-16T10:59:58.480Z,4.376
2024-03-16T11:00:58.484Z,4.368
2024-03-16T11:01:58.492Z,4.318
2024-03-16T11:02:58.494Z,4.398
2024-03-16T11:03:58.504Z,4.556
2024-03-16T11:04:58.504Z,4.640
2024-03-16T11:05:58.516Z,4.759
2024-03-16T11:06:58.528Z,4.773
2024-03-16T11:07:58.541Z,4.887
2024-03-16T11:08:58.549Z,5.018
2024-03-16T11:09:58.582Z,5.148
2024-03-16T11:10:58.638Z,5.305
2024-03-16T11:11:58.572Z,5.489
2024-03-16T11:12:58.577Z,5.598
2024-03-16T11:13:59.566Z,5.742
2024-03-16T11:14:58.587Z,5.667
2024-03-16T11:15:58.658Z,5.815
2024-03-16T11:16:58.696Z,5.957
2024-03-16T11:17:58.615Z,5.957
2024-03-16T11:18:58.628Z,6.063
2024-03-16T11:19:59.438Z,6.151
2024-03-16T11:20:58.634Z,6.187
2024-03-16T11:21:58.712Z,6.222
2024-03-16T11:22:58.657Z,6.327
2024-03-16T11:23:58.677Z,6.281
2024-03-16T11:24:58.680Z,6.419
2024-03-16T11:25:58.683Z,6.395
2024-03-16T11:26:58.690Z,6.480
2024-03-16T11:27:58.698Z,6.564
2024-03-16T11:28:58.698Z,6.620
2024-03-16T11:29:58.739Z,6.704
2024-03-16T11:30:58.795Z,6.837
2024-03-16T11:31:58.718Z,6.876
2024-03-16T11:32:58.735Z,6.885
2024-03-16T11:33:58.734Z,6.870
2024-03-16T11:34:58.746Z,6.906
2024-03-16T11:35:58.761Z,6.954
2024-03-16T11:36:58.765Z,6.820
2024-03-16T11:37:58.775Z,6.820
2024-03-16T11:38:58.787Z,6.761
2024-03-16T11:39:58.789Z,6.793
2024-03-16T11:40:58.804Z,6.842
2024-03-16T11:41:58.806Z,6.738
2024-03-16T11:42:58.812Z,6.786
2024-03-16T11:43:58.816Z,6.774
2024-03-16T11:44:58.825Z,6.667
2024-03-16T11:45:58.840Z,6.699
2024-03-16T11:46:58.852Z,6.750
2024-03-16T11:47:58.858Z,6.782
2024-03-16T11:48:58.873Z,6.830
2024-03-16T11:49:58.890Z,6.760
2024-03-16T11:50:58.902Z,6.728
2024-03-16T11:51:58.901Z,6.712
2024-03-16T11:52:58.906Z,6.696
2024-03-16T11:53:58.914Z,6.680
2024-03-16T11:54:58.919Z,6.664
2024-03-16T11:55:58.939Z,6.591
2024-03-16T11:56:58.931Z,6.572
2024-03-16T11:57:59.016Z,6.588
2024-03-16T11:58:58.947Z,6.490
2024-03-16T11:59:59.006Z,6.490
2024-03-16T12:00:59.566Z,6.506
2024-03-16T12:01:59.055Z,6.538
2024-03-16T12:02:59.109Z,6.570
2024-03-16T12:03:58.998Z,6.456
2024-03-16T12:04:59.009Z,6.440
2024-03-16T12:05:59.018Z,6.456
2024-03-16T12:06:59.029Z,6.484
2024-03-16T12:07:59.036Z,6.246
2024-03-16T12:08:59.050Z,6.037
2024-03-16T12:09:59.039Z,5.891
2024-03-16T12:10:59.059Z,5.627
2024-03-16T12:11:59.045Z,5.578
2024-03-16T12:12:59.063Z,5.529
2024-03-16T12:13:59.076Z,5.496
2024-03-16T12:14:59.152Z,5.512
2024-03-16T12:15:59.093Z,5.484
2024-03-16T12:16:59.109Z,5.500
2024-03-16T12:17:59.114Z,5.566
2024-03-16T12:18:59.126Z,5.533
2024-03-16T12:19:59.147Z,5.599
2024-03-16T12:20:59.150Z,5.798
2024-03-16T12:21:59.152Z,5.887
2024-03-16T12:22:59.162Z,5.916
2024-03-16T12:23:59.172Z,5.916
2024-03-16T12:24:59.188Z,5.867
2024-03-16T12:25:59.170Z,5.806
2024-03-16T12:26:59.193Z,5.737
2024-03-16T12:27:59.199Z,5.568
2024-03-16T12:28:59.211Z,5.502
2024-03-16T12:29:59.222Z,5.502
2024-03-16T12:30:59.232Z,5.379
2024-03-16T12:31:59.234Z,5.336
2024-03-16T12:32:59.255Z,5.353
2024-03-16T12:33:59.259Z,5.365
2024-03-16T12:34:59.265Z,5.332
2024-03-16T12:35:59.273Z,5.242
2024-03-16T12:36:59.264Z,5.274
2024-03-16T12:37:59.277Z,5.339
2024-03-16T12:38:59.288Z,5.372
2024-03-16T12:39:59.298Z,5.404
2024-03-16T12:40:59.319Z,5.471
2024-03-16T12:42:01.396Z,5.427
2024-03-16T12:42:59.336Z,5.411
2024-03-16T12:43:59.349Z,5.411
2024-03-16T12:44:59.360Z,5.379
2024-03-16T12:45:59.369Z,5.363
2024-03-16T12:46:59.377Z,5.347
2024-03-16T12:48:00.544Z,5.347
2024-03-16T12:48:59.400Z,5.331
2024-03-16T12:49:59.408Z,5.315